createdAt,value
2023-04-21T00:02:39.523Z,5.99
2023-04-21T00:07:35.306Z,5.97
2023-04-21T00:12:28.656Z,5.97
2023-04-21T00:17:21.911Z,5.97
2023-04-21T00:22:15.431Z,6.02
2023-04-21T00:27:11.493Z,6.12
2023-04-21T00:32:08.426Z,6.15
2023-04-21T00:37:01.754Z,6.19
2023-04-21T00:41:55.187Z,6.18
2023-04-21T00:46:50.078Z,6.12
2023-04-21T00:51:43.626Z,6.16
2023-04-21T00:56:37.624Z,6.14
2023-04-21T01:01:36.597Z,6.16
2023-04-21T01:06:33.131Z,6.13
2023-04-21T01:11:26.787Z,6.12
2023-04-21T01:16:21.297Z,5.99
2023-04-21T01:21:14.881Z,6.08
2023-04-21T01:26:09.765Z,6.20
2023-04-21T01:31:03.513Z,6.25
2023-04-21T01:49:00.918Z,6.21
2023-04-21T01:53:54.338Z,6.19
2023-04-21T01:58:47.692Z,6.32
2023-04-21T02:03:41.171Z,6.30
2023-04-21T02:08:36.137Z,6.18
2023-04-21T02:13:29.521Z,6.03
2023-04-21T02:18:23.046Z,6.08
2023-04-21T02:23:16.404Z,6.21
2023-04-21T02:28:11.176Z,5.99
2023-04-21T02:33:04.655Z,6.06
2023-04-21T02:37:58.030Z,6.17
2023-04-21T02:42:51.430Z,6.14
2023-04-21T02:47:46.179Z,6.11
2023-04-21T02:52:39.669Z,6.08
2023-04-21T02:57:33.031Z,6.08
2023-04-21T03:02:26.554Z,5.98
2023-04-21T03:07:21.546Z,5.94
2023-04-21T03:12:14.995Z,5.88
2023-04-21T03:17:08.383Z,5.92
2023-04-21T03:22:01.804Z,5.98
2023-04-21T03:26:57.051Z,6.01
2023-04-21T03:31:50.562Z,6.15
2023-04-21T03:36:44.000Z,6.08
2023-04-21T03:41:37.611Z,6.14
2023-04-21T03:46:32.556Z,6.23
2023-04-21T03:51:27.415Z,6.43
2023-04-21T03:56:20.880Z,6.34
2023-04-21T04:01:14.251Z,6.40
2023-04-21T04:06:12.324Z,6.34
2023-04-21T04:11:05.843Z,6.44
2023-04-21T04:15:59.813Z,6.53
2023-04-21T04:20:53.178Z,6.50
2023-04-21T04:25:48.857Z,6.58
2023-04-21T04:30:42.785Z,6.41
2023-04-21T04:35:36.118Z,6.42
2023-04-21T04:40:30.530Z,6.38
2023-04-21T04:45:26.306Z,6.48
2023-04-21T04:50:20.069Z,6.49
2023-04-21T04:55:13.942Z,6.45
2023-04-21T05:00:11.513Z,6.49
2023-04-21T05:05:08.637Z,6.52
2023-04-21T05:10:04.286Z,6.45
2023-04-21T05:14:57.767Z,6.36
2023-04-21T05:19:51.447Z,6.40
2023-04-21T05:24:46.201Z,6.38
2023-04-21T05:29:39.590Z,6.47
2023-04-21T05:34:32.866Z,6.60
2023-04-21T05:39:26.438Z,6.59
2023-04-21T05:44:21.335Z,6.55
2023-04-21T05:49:14.957Z,6.56
2023-04-21T05:54:08.288Z,6.63
2023-04-21T05:59:01.666Z,6.70
2023-04-21T06:03:56.642Z,6.71
2023-04-21T06:13:58.773Z,6.77
2023-04-21T06:18:52.172Z,6.71
2023-04-21T06:23:46.998Z,6.85
2023-04-21T06:28:40.335Z,7.02
2023-04-21T06:33:34.233Z,6.92
2023-04-21T06:38:27.714Z,7.00
2023-04-21T06:43:22.597Z,7.15
2023-04-21T06:48:16.039Z,7.53
2023-04-21T06:53:12.239Z,7.55
2023-04-21T06:58:05.644Z,7.63
2023-04-21T07:18:21.323Z,8.08
2023-04-21T07:23:14.690Z,8.19
2023-04-21T07:28:08.122Z,8.25
2023-04-21T07:33:01.793Z,8.52
2023-04-21T07:37:56.939Z,8.77
2023-04-21T07:42:50.330Z,9.11
2023-04-21T07:47:43.722Z,9.46
2023-04-21T07:52:37.327Z,9.52
2023-04-21T07:57:34.629Z,9.52
2023-04-21T08:02:28.294Z,9.86
2023-04-21T08:07:23.012Z,10.05
2023-04-21T08:12:16.471Z,10.31
2023-04-21T08:17:11.325Z,10.27
2023-04-21T08:42:37.037Z,11.33
2023-04-21T08:47:31.488Z,11.63
2023-04-21T08:52:25.281Z,11.59
2023-04-21T08:57:23.543Z,11.79
2023-04-21T09:02:20.427Z,12.08
2023-04-21T09:07:32.201Z,12.08
2023-04-21T09:12:26.270Z,12.20
2023-04-21T09:17:28.978Z,12.45
2023-04-21T09:22:28.266Z,12.21
2023-04-21T09:27:23.284Z,12.43
2023-04-21T09:32:21.954Z,12.71
2023-04-21T09:37:21.527Z,12.87
2023-04-21T09:42:17.265Z,13.09
2023-04-21T09:47:14.404Z,12.86
2023-04-21T09:52:18.997Z,12.85
2023-04-21T09:58:24.814Z,13.07
2023-04-21T10:03:33.565Z,13.22
2023-04-21T10:08:31.803Z,12.95
2023-04-21T10:13:25.946Z,12.93
2023-04-21T10:18:35.273Z,13.27
2023-04-21T10:23:32.825Z,13.57
2023-04-21T10:28:51.379Z,13.57
2023-04-21T10:34:05.149Z,13.78
2023-04-21T10:39:06.271Z,14.03
2023-04-21T10:44:00.805Z,14.09
2023-04-21T10:48:54.641Z,14.16
2023-04-21T10:53:50.628Z,14.39
2023-04-21T10:58:47.888Z,14.63
2023-04-21T11:03:44.994Z,14.72
2023-04-21T11:08:56.907Z,14.75
2023-04-21T11:13:55.730Z,14.73
2023-04-21T11:18:49.848Z,14.78
2023-04-21T11:23:50.028Z,15.11
2023-04-21T11:28:49.609Z,14.91
2023-04-21T11:33:44.483Z,15.10
2023-04-21T11:38:42.701Z,15.02
2023-04-21T11:49:56.556Z,15.14
2023-04-21T11:54:57.851Z,15.16
2023-04-21T11:59:51.354Z,15.09
2023-04-21T12:05:04.378Z,15.22
2023-04-21T12:09:58.225Z,15.19
2023-04-21T12:14:53.113Z,15.24
2023-04-21T12:19:46.691Z,15.17
2023-04-21T12:24:47.287Z,15.08
2023-04-21T12:29:45.933Z,15.05
2023-04-21T12:34:39.289Z,14.81
2023-04-21T12:39:32.898Z,15.02
2023-04-21T12:44:27.773Z,15.41
2023-04-21T12:49:21.427Z,15.41
2023-04-21T12:54:15.491Z,15.40
2023-04-21T12:59:09.986Z,15.41
2023-04-21T13:04:05.662Z,15.49
2023-04-21T13:09:02.372Z,15.55
2023-04-21T13:13:59.005Z,15.69
2023-04-21T13:18:52.333Z,15.79
2023-04-21T13:23:52.717Z,15.71
2023-04-21T13:28:46.424Z,15.68
2023-04-21T13:33:39.932Z,15.82
2023-04-21T13:38:42.714Z,15.80
2023-04-21T13:43:37.587Z,15.75
2023-04-21T13:48:30.925Z,15.81
2023-04-21T13:53:24.368Z,15.73
2023-04-21T13:58:21.128Z,15.71
2023-04-21T14:03:19.410Z,15.71
2023-04-21T14:08:15.102Z,15.53
2023-04-21T14:13:15.081Z,15.50
2023-04-21T14:18:18.660Z,15.67
2023-04-21T14:23:13.897Z,16.25
2023-04-21T14:28:10.502Z,16.62
2023-04-21T14:33:04.289Z,16.72
2023-04-21T14:37:59.764Z,16.53
2023-04-21T14:42:53.212Z,16.45
2023-04-21T14:47:46.666Z,16.16
2023-04-21T14:52:40.097Z,15.90
2023-04-21T14:57:35.867Z,15.71
2023-04-21T15:02:29.967Z,15.47
2023-04-21T15:07:24.994Z,15.32
2023-04-21T15:12:18.671Z,15.18
2023-04-21T15:17:13.716Z,14.93
2023-04-21T15:22:07.311Z,14.84
2023-04-21T15:27:01.399Z,14.96
2023-04-21T15:31:54.704Z,15.08
2023-04-21T15:36:52.144Z,15.07
2023-04-21T15:41:45.564Z,15.08
2023-04-21T15:46:39.048Z,15.00
2023-04-21T15:51:35.756Z,15.01
2023-04-21T15:56:30.498Z,14.97
2023-04-21T16:01:24.015Z,14.87
2023-04-21T16:06:18.750Z,14.93
2023-04-21T16:11:12.265Z,14.86
2023-04-21T16:16:08.846Z,14.88
2023-04-21T16:21:02.578Z,14.71
2023-04-21T16:26:11.090Z,14.72
2023-04-21T16:31:04.528Z,14.60
2023-04-21T16:35:59.367Z,14.61
2023-04-21T16:40:52.685Z,14.38
2023-04-21T16:45:46.172Z,14.25
2023-04-21T16:50:39.795Z,14.13
2023-04-21T16:55:34.787Z,14.10
2023-04-21T17:00:30.106Z,14.06
2023-04-21T17:05:24.120Z,13.89
2023-04-21T17:10:19.674Z,13.76
2023-04-21T17:15:17.025Z,13.62
2023-04-21T17:20:12.584Z,13.62
2023-04-21T17:25:06.838Z,13.58
2023-04-21T17:30:00.332Z,13.52
2023-04-21T17:34:57.560Z,13.49
2023-04-21T17:39:53.707Z,13.40
2023-04-21T17:44:51.838Z,13.36
2023-04-21T17:49:58.150Z,13.33
2023-04-21T17:54:53.033Z,13.25
2023-04-21T17:59:46.524Z,13.24
2023-04-21T18:04:40.032Z,13.17
2023-04-21T18:09:33.750Z,13.13
2023-04-21T18:14:30.522Z,13.07
2023-04-21T18:19:23.910Z,13.03
2023-04-21T18:24:17.327Z,13.00
2023-04-21T18:29:10.772Z,12.93
2023-04-21T18:34:06.080Z,12.92
2023-04-21T18:38:59.460Z,12.88
2023-04-21T18:43:52.798Z,12.85
2023-04-21T18:48:46.215Z,12.85
2023-04-21T18:53:42.527Z,12.77
2023-04-21T18:58:35.830Z,12.66
2023-04-21T19:03:29.360Z,12.64
2023-04-21T19:08:38.244Z,12.62
2023-04-21T19:13:36.555Z,12.58
2023-04-21T19:18:29.868Z,12.41
2023-04-21T19:23:23.279Z,12.37
2023-04-21T19:28:16.681Z,12.37
2023-04-21T19:33:13.126Z,12.33
2023-04-21T19:38:29.262Z,12.33
2023-04-21T19:44:03.027Z,12.31
2023-04-21T19:54:37.030Z,12.15
2023-04-21T20:00:11.580Z,12.16
2023-04-21T20:05:42.767Z,12.22
2023-04-21T20:16:17.794Z,12.21
2023-04-21T20:21:17.706Z,12.02
2023-04-21T20:27:09.529Z,11.97
2023-04-21T20:32:47.834Z,11.90
2023-04-21T20:38:00.878Z,11.82
2023-04-21T20:43:03.030Z,11.80
2023-04-21T20:47:59.309Z,11.80
2023-04-21T20:53:04.600Z,11.70
2023-04-21T20:58:02.682Z,11.56
2023-04-21T21:02:56.205Z,11.49
2023-04-21T21:07:49.682Z,11.59
2023-04-21T21:12:44.356Z,11.66
2023-04-21T21:17:39.386Z,11.68
2023-04-21T21:22:32.722Z,11.67
2023-04-21T21:27:26.219Z,11.72
2023-04-21T21:32:20.998Z,11.70
2023-04-21T21:37:14.352Z,11.68
2023-04-21T21:42:07.683Z,11.62
2023-04-21T21:47:01.459Z,11.60
2023-04-21T21:51:56.685Z,11.59
2023-04-21T21:56:50.453Z,11.53
2023-04-21T22:01:43.993Z,11.36
2023-04-21T22:06:38.255Z,11.39
2023-04-21T22:11:33.171Z,11.28
2023-04-21T22:16:26.603Z,11.24
2023-04-21T22:21:20.545Z,11.27
2023-04-21T22:26:13.894Z,11.35
2023-04-21T22:31:08.853Z,11.23
2023-04-21T22:36:02.388Z,11.25
2023-04-21T22:40:55.741Z,11.08
2023-04-21T22:45:49.197Z,11.01
2023-04-21T22:50:44.878Z,11.07
2023-04-21T22:55:38.402Z,10.93
2023-04-21T23:00:31.770Z,10.91
2023-04-21T23:05:25.063Z,10.83
2023-04-21T23:10:19.947Z,10.89
2023-04-21T23:15:13.472Z,10.94
2023-04-21T23:20:09.673Z,10.85
2023-04-21T23:25:03.144Z,10.82
2023-04-21T23:29:59.555Z,10.80
2023-04-21T23:34:53.407Z,10.74
2023-04-21T23:39:46.839Z,10.70
2023-04-21T23:44:40.466Z,10.64
2023-04-21T23:49:35.280Z,10.61
2023-04-21T23:54:31.766Z,10.58
2023-04-21T23:59:27.751Z,10.59
